sensor_id;sensor_type;location;lat;lon;timestamp;pressure;altitude;pressure_sealevel;temperature;humidity
23899;BME280;20544;50.018;20.010;2023-01-09T00:01:20;97799.33;;;2.55;100.00
23899;BME280;20544;50.018;20.010;2023-01-09T00:05:12;97806.89;;;2.58;100.00
23899;BME280;20544;50.018;20.010;2023-01-09T00:09:01;97796.71;;;2.55;100.00
23899;BME280;20544;50.018;20.010;2023-01-09T00:12:50;97792.22;;;2.39;100.00
23899;BME280;20544;50.018;20.010;2023-01-09T00:16:41;97780.91;;;2.13;100.00
23899;BME280;20544;50.018;20.010;2023-01-09T00:20:29;97790.92;;;1.99;100.00
23899;BME280;20544;50.018;20.010;2023-01-09T00:24:17;97788.78;;;1.94;100.00
23899;BME280;20544;50.018;20.010;2023-01-09T00:31:21;97784.88;;;1.81;100.00
23899;BME280;20544;50.018;20.010;2023-01-09T00:35:12;97772.73;;;1.71;100.00
23899;BME280;20544;50.018;20.010;2023-01-09T00:39:02;97780.27;;;1.56;100.00
23899;BME280;20544;50.018;20.010;2023-01-09T00:46:07;97780.33;;;1.47;100.00
23899;BME280;20544;50.018;20.010;2023-01-09T00:49:56;97788.48;;;1.43;100.00
23899;BME280;20544;50.018;20.010;2023-01-09T00:53:47;97781.77;;;1.41;100.00
23899;BME280;20544;50.018;20.010;2023-01-09T00:57:36;97776.88;;;1.28;100.00
23899;BME280;20544;50.018;20.010;2023-01-09T01:01:25;97778.52;;;1.29;100.00
23899;BME280;20544;50.018;20.010;2023-01-09T01:05:14;97778.88;;;1.16;100.00
23899;BME280;20544;50.018;20.010;2023-01-09T01:09:17;97757.35;;;1.04;100.00
23899;BME280;20544;50.018;20.010;2023-01-09T01:13:05;97756.55;;;1.04;100.00
23899;BME280;20544;50.018;20.010;2023-01-09T01:16:53;97761.61;;;1.05;100.00
23899;BME280;20544;50.018;20.010;2023-01-09T01:20:42;97759.16;;;1.04;100.00
23899;BME280;20544;50.018;20.010;2023-01-09T01:24:32;97757.94;;;0.98;100.00
23899;BME280;20544;50.018;20.010;2023-01-09T01:31:44;97749.03;;;0.91;100.00
23899;BME280;20544;50.018;20.010;2023-01-09T01:35:32;97740.13;;;1.11;100.00
23899;BME280;20544;50.018;20.010;2023-01-09T01:39:20;97731.43;;;1.39;100.00
23899;BME280;20544;50.018;20.010;2023-01-09T01:43:10;97726.58;;;1.26;100.00
23899;BME280;20544;50.018;20.010;2023-01-09T01:46:58;97732.45;;;1.10;100.00
23899;BME280;20544;50.018;20.010;2023-01-09T01:50:49;97727.71;;;0.95;100.00
23899;BME280;20544;50.018;20.010;2023-01-09T01:54:38;97736.23;;;0.98;100.00
23899;BME280;20544;50.018;20.010;2023-01-09T01:58:27;97733.67;;;0.88;100.00
23899;BME280;20544;50.018;20.010;2023-01-09T02:02:15;97710.93;;;0.98;100.00
23899;BME280;20544;50.018;20.010;2023-01-09T02:06:05;97714.70;;;0.86;100.00
23899;BME280;20544;50.018;20.010;2023-01-09T02:09:54;97724.41;;;0.93;100.00
23899;BME280;20544;50.018;20.010;2023-01-09T02:13:43;97707.35;;;0.99;100.00
23899;BME280;20544;50.018;20.010;2023-01-09T02:17:44;97714.97;;;0.92;100.00
23899;BME280;20544;50.018;20.010;2023-01-09T02:21:47;97711.36;;;0.93;100.00
23899;BME280;20544;50.018;20.010;2023-01-09T02:30:17;97704.37;;;0.94;100.00
23899;BME280;20544;50.018;20.010;2023-01-09T02:34:11;97701.75;;;0.94;100.00
23899;BME280;20544;50.018;20.010;2023-01-09T02:38:08;97704.11;;;0.87;100.00
23899;BME280;20544;50.018;20.010;2023-01-09T02:42:01;97712.02;;;0.77;100.00
23899;BME280;20544;50.018;20.010;2023-01-09T02:49:27;97704.19;;;0.77;100.00
23899;BME280;20544;50.018;20.010;2023-01-09T03:01:14;97699.93;;;0.76;100.00
23899;BME280;20544;50.018;20.010;2023-01-09T03:05:10;97715.25;;;0.61;100.00
23899;BME280;20544;50.018;20.010;2023-01-09T03:09:05;97725.39;;;0.64;100.00
23899;BME280;20544;50.018;20.010;2023-01-09T03:16:15;97721.47;;;0.78;100.00
23899;BME280;20544;50.018;20.010;2023-01-09T03:20:06;97722.93;;;0.63;100.00
23899;BME280;20544;50.018;20.010;2023-01-09T03:23:57;97708.34;;;0.70;100.00
23899;BME280;20544;50.018;20.010;2023-01-09T03:27:46;97718.48;;;0.73;100.00
23899;BME280;20544;50.018;20.010;2023-01-09T03:32:38;97704.42;;;0.84;100.00
23899;BME280;20544;50.018;20.010;2023-01-09T03:36:26;97696.05;;;0.80;100.00
23899;BME280;20544;50.018;20.010;2023-01-09T03:40:14;97687.03;;;0.75;100.00
23899;BME280;20544;50.018;20.010;2023-01-09T03:44:11;97688.12;;;0.72;100.00
23899;BME280;20544;50.018;20.010;2023-01-09T03:47:58;97680.02;;;0.75;100.00
23899;BME280;20544;50.018;20.010;2023-01-09T03:51:46;97680.11;;;0.84;100.00
23899;BME280;20544;50.018;20.010;2023-01-09T03:55:34;97664.23;;;0.95;100.00
23899;BME280;20544;50.018;20.010;2023-01-09T04:02:38;97665.10;;;0.86;100.00
23899;BME280;20544;50.018;20.010;2023-01-09T04:06:26;97653.33;;;1.00;100.00
23899;BME280;20544;50.018;20.010;2023-01-09T04:10:14;97645.12;;;0.94;100.00
23899;BME280;20544;50.018;20.010;2023-01-09T04:14:02;97653.78;;;1.13;100.00
23899;BME280;20544;50.018;20.010;2023-01-09T04:17:50;97633.42;;;1.35;100.00
23899;BME280;20544;50.018;20.010;2023-01-09T04:21:38;97630.73;;;1.26;100.00
23899;BME280;20544;50.018;20.010;2023-01-09T04:25:26;97643.63;;;1.28;100.00
23899;BME280;20544;50.018;20.010;2023-01-09T04:32:30;97625.34;;;1.46;100.00
23899;BME280;20544;50.018;20.010;2023-01-09T04:36:18;97619.79;;;1.49;100.00
23899;BME280;20544;50.018;20.010;2023-01-09T04:40:11;97609.92;;;1.61;100.00
23899;BME280;20544;50.018;20.010;2023-01-09T04:47:15;97614.83;;;1.64;100.00
23899;BME280;20544;50.018;20.010;2023-01-09T04:51:04;97601.83;;;1.72;100.00
23899;BME280;20544;50.018;20.010;2023-01-09T04:54:52;97601.37;;;1.77;100.00
23899;BME280;20544;50.018;20.010;2023-01-09T05:01:57;97597.14;;;1.84;100.00
23899;BME280;20544;50.018;20.010;2023-01-09T05:05:45;97598.48;;;1.88;100.00
23899;BME280;20544;50.018;20.010;2023-01-09T05:09:33;97580.84;;;1.64;100.00
23899;BME280;20544;50.018;20.010;2023-01-09T05:13:21;97580.55;;;1.67;100.00
23899;BME280;20544;50.018;20.010;2023-01-09T05:17:09;97583.69;;;1.71;100.00
23899;BME280;20544;50.018;20.010;2023-01-09T05:20:57;97586.78;;;1.74;100.00
23899;BME280;20544;50.018;20.010;2023-01-09T05:24:47;97587.97;;;1.80;100.00
23899;BME280;20544;50.018;20.010;2023-01-09T05:28:35;97583.77;;;1.87;100.00
23899;BME280;20544;50.018;20.010;2023-01-09T05:32:23;97576.44;;;1.91;100.00
23899;BME280;20544;50.018;20.010;2023-01-09T05:36:11;97583.95;;;1.94;100.00
23899;BME280;20544;50.018;20.010;2023-01-09T05:39:59;97591.50;;;1.97;100.00
23899;BME280;20544;50.018;20.010;2023-01-09T05:43:49;97585.30;;;1.98;100.00
23899;BME280;20544;50.018;20.010;2023-01-09T05:47:38;97581.55;;;2.01;100.00
23899;BME280;20544;50.018;20.010;2023-01-09T05:51:27;97575.32;;;2.02;100.00
23899;BME280;20544;50.018;20.010;2023-01-09T05:55:15;97578.42;;;1.97;100.00
23899;BME280;20544;50.018;20.010;2023-01-09T06:02:19;97570.88;;;1.94;100.00
23899;BME280;20544;50.018;20.010;2023-01-09T06:06:08;97574.28;;;1.86;100.00
23899;BME280;20544;50.018;20.010;2023-01-09T06:09:57;97565.30;;;1.89;100.00
23899;BME280;20544;50.018;20.010;2023-01-09T06:17:01;97556.64;;;1.88;100.00
23899;BME280;20544;50.018;20.010;2023-01-09T06:20:49;97559.77;;;1.92;100.00
23899;BME280;20544;50.018;20.010;2023-01-09T06:24:37;97561.09;;;1.96;100.00
23899;BME280;20544;50.018;20.010;2023-01-09T06:28:25;97560.47;;;2.02;100.00
23899;BME280;20544;50.018;20.010;2023-01-09T06:32:13;97553.93;;;2.06;100.00
23899;BME280;20544;50.018;20.010;2023-01-09T06:36:01;97554.39;;;2.02;100.00
23899;BME280;20544;50.018;20.010;2023-01-09T06:39:49;97553.13;;;2.06;100.00
23899;BME280;20544;50.018;20.010;2023-01-09T06:50:05;97544.82;;;2.19;100.00
23899;BME280;20544;50.018;20.010;2023-01-09T06:53:54;97549.25;;;2.18;100.00
23899;BME280;20544;50.018;20.010;2023-01-09T06:57:42;97541.61;;;2.33;100.00
23899;BME280;20544;50.018;20.010;2023-01-09T07:01:30;97542.02;;;2.96;100.00
23899;BME280;20544;50.018;20.010;2023-01-09T07:05:20;97542.00;;;3.13;100.00
23899;BME280;20544;50.018;20.010;2023-01-09T07:09:08;97540.70;;;3.33;100.00
23899;BME280;20544;50.018;20.010;2023-01-09T07:12:56;97547.02;;;3.64;100.00
23899;BME280;20544;50.018;20.010;2023-01-09T07:16:45;97541.14;;;3.62;100.00
23899;BME280;20544;50.018;20.010;2023-01-09T07:20:44;97545.85;;;3.75;100.00
23899;BME280;20544;50.018;20.010;2023-01-09T07:24:32;97545.16;;;3.89;100.00
23899;BME280;20544;50.018;20.010;2023-01-09T07:28:22;97556.52;;;3.73;100.00
23899;BME280;20544;50.018;20.010;2023-01-09T07:32:10;97556.58;;;4.04;100.00
23899;BME280;20544;50.018;20.010;2023-01-09T07:35:58;97546.76;;;3.98;100.00
23899;BME280;20544;50.018;20.010;2023-01-09T07:39:47;97552.51;;;3.94;100.00
23899;BME280;20544;50.018;20.010;2023-01-09T07:43:35;97545.00;;;3.82;100.00
23899;BME280;20544;50.018;20.010;2023-01-09T07:47:24;97551.76;;;3.77;100.00
23899;BME280;20544;50.018;20.010;2023-01-09T07:51:12;97555.36;;;3.76;100.00
23899;BME280;20544;50.018;20.010;2023-01-09T07:55:00;97560.78;;;3.74;100.00
23899;BME280;20544;50.018;20.010;2023-01-09T08:05:06;97552.56;;;3.77;100.00
23899;BME280;20544;50.018;20.010;2023-01-09T08:08:54;97547.80;;;3.81;100.00
23899;BME280;20544;50.018;20.010;2023-01-09T08:12:45;97542.23;;;3.84;100.00
23899;BME280;20544;50.018;20.010;2023-01-09T08:16:34;97532.05;;;3.89;100.00
23899;BME280;20544;50.018;20.010;2023-01-09T08:20:22;97543.17;;;3.91;100.00
23899;BME280;20544;50.018;20.010;2023-01-09T08:24:13;97543.16;;;3.99;100.00
23899;BME280;20544;50.018;20.010;2023-01-09T08:28:03;97536.88;;;4.09;100.00
23899;BME280;20544;50.018;20.010;2023-01-09T08:31:51;97541.29;;;4.16;100.00
23899;BME280;20544;50.018;20.010;2023-01-09T08:35:40;97536.97;;;4.24;100.00
23899;BME280;20544;50.018;20.010;2023-01-09T08:39:29;97528.77;;;4.27;100.00
23899;BME280;20544;50.018;20.010;2023-01-09T08:43:17;97532.85;;;4.29;100.00
23899;BME280;20544;50.018;20.010;2023-01-09T08:47:23;97531.51;;;4.33;100.00
23899;BME280;20544;50.018;20.010;2023-01-09T08:51:12;97527.39;;;4.39;100.00
23899;BME280;20544;50.018;20.010;2023-01-09T08:55:00;97530.27;;;4.52;100.00
23899;BME280;20544;50.018;20.010;2023-01-09T08:58:48;97532.80;;;4.92;100.00
23899;BME280;20544;50.018;20.010;2023-01-09T09:02:36;97523.36;;;5.21;100.00
23899;BME280;20544;50.018;20.010;2023-01-09T09:06:25;97525.66;;;5.54;100.00
23899;BME280;20544;50.018;20.010;2023-01-09T09:10:14;97525.14;;;5.74;100.00
23899;BME280;20544;50.018;20.010;2023-01-09T09:14:04;97515.70;;;5.94;100.00
23899;BME280;20544;50.018;20.010;2023-01-09T09:18:07;97520.79;;;6.11;100.00
23899;BME280;20544;50.018;20.010;2023-01-09T09:21:55;97528.98;;;6.38;100.00
23899;BME280;20544;50.018;20.010;2023-01-09T09:25:43;97527.99;;;6.39;100.00
23899;BME280;20544;50.018;20.010;2023-01-09T09:29:31;97521.69;;;6.55;100.00
23899;BME280;20544;50.018;20.010;2023-01-09T09:33:19;97514.48;;;6.63;100.00
23899;BME280;20544;50.018;20.010;2023-01-09T09:37:07;97497.28;;;6.68;100.00
23899;BME280;20544;50.018;20.010;2023-01-09T09:41:13;97501.49;;;6.84;100.00
23899;BME280;20544;50.018;20.010;2023-01-09T09:45:25;97494.83;;;6.88;100.00
23899;BME280;20544;50.018;20.010;2023-01-09T09:49:20;97483.92;;;6.91;100.00
23899;BME280;20544;50.018;20.010;2023-01-09T09:53:14;97493.51;;;6.99;100.00
23899;BME280;20544;50.018;20.010;2023-01-09T09:57:05;97493.89;;;6.74;100.00
23899;BME280;20544;50.018;20.010;2023-01-09T10:00:56;97494.90;;;6.51;100.00
23899;BME280;20544;50.018;20.010;2023-01-09T10:04:47;97497.27;;;6.24;100.00
23899;BME280;20544;50.018;20.010;2023-01-09T10:08:42;97497.36;;;6.16;100.00
23899;BME280;20544;50.018;20.010;2023-01-09T10:12:38;97496.45;;;6.09;100.00
23899;BME280;20544;50.018;20.010;2023-01-09T10:20:56;97485.92;;;6.09;100.00
23899;BME280;20544;50.018;20.010;2023-01-09T10:25:02;97473.66;;;6.16;100.00
23899;BME280;20544;50.018;20.010;2023-01-09T10:33:43;97460.70;;;6.36;100.00
23899;BME280;20544;50.018;20.010;2023-01-09T10:37:37;97452.95;;;6.50;100.00
23899;BME280;20544;50.018;20.010;2023-01-09T10:41:29;97448.34;;;6.80;100.00
23899;BME280;20544;50.018;20.010;2023-01-09T10:48:36;97431.55;;;7.44;100.00
23899;BME280;20544;50.018;20.010;2023-01-09T10:52:32;97439.14;;;7.61;100.00
23899;BME280;20544;50.018;20.010;2023-01-09T10:56:24;97430.78;;;7.99;100.00
23899;BME280;20544;50.018;20.010;2023-01-09T11:00:21;97421.64;;;7.95;100.00
23899;BME280;20544;50.018;20.010;2023-01-09T11:04:22;97428.41;;;8.18;100.00
23899;BME280;20544;50.018;20.010;2023-01-09T11:08:17;97431.89;;;8.38;100.00
23899;BME280;20544;50.018;20.010;2023-01-09T11:12:24;97421.80;;;8.55;100.00
23899;BME280;20544;50.018;20.010;2023-01-09T11:16:22;97419.98;;;8.63;100.00
23899;BME280;20544;50.018;20.010;2023-01-09T11:20:17;97430.16;;;8.72;100.00
23899;BME280;20544;50.018;20.010;2023-01-09T11:24:25;97416.72;;;8.74;100.00
23899;BME280;20544;50.018;20.010;2023-01-09T11:28:14;97414.70;;;8.76;100.00
23899;BME280;20544;50.018;20.010;2023-01-09T11:32:03;97414.49;;;8.78;100.00
23899;BME280;20544;50.018;20.010;2023-01-09T11:36:00;97407.57;;;8.77;100.00
23899;BME280;20544;50.018;20.010;2023-01-09T11:39:54;97407.36;;;8.78;100.00
23899;BME280;20544;50.018;20.010;2023-01-09T11:43:45;97412.26;;;8.81;100.00
23899;BME280;20544;50.018;20.010;2023-01-09T11:48:29;97409.80;;;8.93;100.00
23899;BME280;20544;50.018;20.010;2023-01-09T11:52:19;97404.52;;;9.00;100.00
23899;BME280;20544;50.018;20.010;2023-01-09T11:56:10;97405.31;;;9.14;100.00
23899;BME280;20544;50.018;20.010;2023-01-09T12:00:03;97403.48;;;9.08;100.00
23899;BME280;20544;50.018;20.010;2023-01-09T12:04:18;97405.48;;;9.26;100.00
23899;BME280;20544;50.018;20.010;2023-01-09T12:08:21;97396.55;;;9.20;100.00
23899;BME280;20544;50.018;20.010;2023-01-09T12:12:26;97389.63;;;9.19;100.00
23899;BME280;20544;50.018;20.010;2023-01-09T12:16:20;97397.56;;;9.19;100.00
23899;BME280;20544;50.018;20.010;2023-01-09T12:20:28;97381.88;;;9.24;100.00
23899;BME280;20544;50.018;20.010;2023-01-09T12:24:41;97388.78;;;9.32;100.00
23899;BME280;20544;50.018;20.010;2023-01-09T12:28:57;97387.55;;;9.34;100.00
23899;BME280;20544;50.018;20.010;2023-01-09T12:33:00;97388.34;;;9.48;100.00
23899;BME280;20544;50.018;20.010;2023-01-09T12:37:00;97385.84;;;9.60;100.00
23899;BME280;20544;50.018;20.010;2023-01-09T12:41:18;97399.88;;;9.67;100.00
23899;BME280;20544;50.018;20.010;2023-01-09T12:45:36;97395.11;;;9.83;100.00
23899;BME280;20544;50.018;20.010;2023-01-09T12:49:29;97395.11;;;9.90;100.00
23899;BME280;20544;50.018;20.010;2023-01-09T12:53:22;97398.55;;;9.90;100.00
23899;BME280;20544;50.018;20.010;2023-01-09T12:57:18;97396.73;;;9.91;100.00
23899;BME280;20544;50.018;20.010;2023-01-09T13:01:12;97393.88;;;9.85;100.00
23899;BME280;20544;50.018;20.010;2023-01-09T13:05:08;97394.53;;;9.81;100.00
23899;BME280;20544;50.018;20.010;2023-01-09T13:09:05;97395.56;;;9.73;100.00
23899;BME280;20544;50.018;20.010;2023-01-09T13:13:03;97389.69;;;9.64;100.00
23899;BME280;20544;50.018;20.010;2023-01-09T13:16:55;97382.22;;;9.54;100.00
23899;BME280;20544;50.018;20.010;2023-01-09T13:20:48;97387.73;;;9.46;100.00
23899;BME280;20544;50.018;20.010;2023-01-09T13:24:45;97384.91;;;9.34;100.00
23899;BME280;20544;50.018;20.010;2023-01-09T13:28:40;97380.44;;;9.28;100.00
23899;BME280;20544;50.018;20.010;2023-01-09T13:35:54;97374.19;;;9.09;100.00
23899;BME280;20544;50.018;20.010;2023-01-09T13:39:50;97375.84;;;9.03;100.00
23899;BME280;20544;50.018;20.010;2023-01-09T13:43:56;97384.98;;;8.94;100.00
23899;BME280;20544;50.018;20.010;2023-01-09T13:55:38;97403.50;;;8.81;100.00
23899;BME280;20544;50.018;20.010;2023-01-09T13:59:29;97405.14;;;8.75;100.00
23899;BME280;20544;50.018;20.010;2023-01-09T14:03:39;97419.56;;;8.66;100.00
23899;BME280;20544;50.018;20.010;2023-01-09T14:07:29;97421.80;;;8.49;100.00
23899;BME280;20544;50.018;20.010;2023-01-09T14:11:25;97428.86;;;8.41;100.00
23899;BME280;20544;50.018;20.010;2023-01-09T14:21:47;97441.45;;;8.39;100.00
23899;BME280;20544;50.018;20.010;2023-01-09T14:25:39;97448.78;;;8.37;100.00
23899;BME280;20544;50.018;20.010;2023-01-09T14:29:45;97452.61;;;8.35;100.00
23899;BME280;20544;50.018;20.010;2023-01-09T14:34:43;97469.08;;;8.30;100.00
23899;BME280;20544;50.018;20.010;2023-01-09T14:38:02;97462.37;;;8.28;100.00
23899;BME280;20544;50.018;20.010;2023-01-09T14:41:28;97467.02;;;8.25;100.00
23899;BME280;20544;50.018;20.010;2023-01-09T14:45:02;97460.52;;;8.21;100.00
23899;BME280;20544;50.018;20.010;2023-01-09T14:48:20;97459.69;;;8.21;100.00
23899;BME280;20544;50.018;20.010;2023-01-09T14:51:40;97452.38;;;8.16;100.00
23899;BME280;20544;50.018;20.010;2023-01-09T14:55:00;97461.48;;;8.07;100.00
23899;BME280;20544;50.018;20.010;2023-01-09T14:58:23;97460.03;;;7.98;100.00
23899;BME280;20544;50.018;20.010;2023-01-09T15:01:42;97470.33;;;7.86;100.00
23899;BME280;20544;50.018;20.010;2023-01-09T15:05:03;97475.41;;;7.87;100.00
23899;BME280;20544;50.018;20.010;2023-01-09T15:08:25;97481.31;;;7.89;100.00
23899;BME280;20544;50.018;20.010;2023-01-09T15:11:42;97481.52;;;7.88;100.00
23899;BME280;20544;50.018;20.010;2023-01-09T15:15:01;97472.11;;;7.78;100.00
23899;BME280;20544;50.018;20.010;2023-01-09T15:18:23;97477.95;;;7.67;100.00
23899;BME280;20544;50.018;20.010;2023-01-09T15:21:54;97479.70;;;7.53;100.00
23899;BME280;20544;50.018;20.010;2023-01-09T15:25:20;97490.89;;;7.55;100.00
23899;BME280;20544;50.018;20.010;2023-01-09T15:28:43;97498.60;;;7.57;100.00
23899;BME280;20544;50.018;20.010;2023-01-09T15:35:16;97502.21;;;7.49;100.00
23899;BME280;20544;50.018;20.010;2023-01-09T15:38:33;97508.49;;;7.48;100.00
23899;BME280;20544;50.018;20.010;2023-01-09T15:41:51;97510.50;;;7.46;100.00
23899;BME280;20544;50.018;20.010;2023-01-09T15:45:25;97511.33;;;7.47;100.00
23899;BME280;20544;50.018;20.010;2023-01-09T15:49:53;97516.98;;;7.43;100.00
23899;BME280;20544;50.018;20.010;2023-01-09T15:53:15;97533.64;;;7.44;100.00
23899;BME280;20544;50.018;20.010;2023-01-09T15:56:32;97541.55;;;7.44;100.00
23899;BME280;20544;50.018;20.010;2023-01-09T15:59:51;97547.43;;;7.46;100.00
23899;BME280;20544;50.018;20.010;2023-01-09T16:03:19;97555.55;;;7.44;100.00
23899;BME280;20544;50.018;20.010;2023-01-09T16:06:40;97556.34;;;7.45;100.00
23899;BME280;20544;50.018;20.010;2023-01-09T16:09:57;97560.82;;;7.44;100.00
23899;BME280;20544;50.018;20.010;2023-01-09T16:13:16;97559.58;;;7.40;100.00
23899;BME280;20544;50.018;20.010;2023-01-09T16:16:34;97569.50;;;7.38;100.00
23899;BME280;20544;50.018;20.010;2023-01-09T16:19:52;97578.97;;;7.33;100.00
23899;BME280;20544;50.018;20.010;2023-01-09T16:23:21;97573.90;;;7.31;100.00
23899;BME280;20544;50.018;20.010;2023-01-09T16:26:40;97578.84;;;7.41;100.00
23899;BME280;20544;50.018;20.010;2023-01-09T16:29:57;97585.64;;;7.50;100.00
23899;BME280;20544;50.018;20.010;2023-01-09T16:33:21;97571.28;;;7.59;100.00
23899;BME280;20544;50.018;20.010;2023-01-09T16:36:39;97575.59;;;7.67;100.00
23899;BME280;20544;50.018;20.010;2023-01-09T16:40:23;97575.22;;;7.70;100.00
23899;BME280;20544;50.018;20.010;2023-01-09T16:43:46;97579.30;;;7.73;100.00
23899;BME280;20544;50.018;20.010;2023-01-09T16:47:03;97578.09;;;7.75;100.00
23899;BME280;20544;50.018;20.010;2023-01-09T16:50:22;97582.17;;;7.78;100.00
23899;BME280;20544;50.018;20.010;2023-01-09T16:53:39;97581.34;;;7.77;100.00
23899;BME280;20544;50.018;20.010;2023-01-09T16:56:57;97588.09;;;7.80;100.00
23899;BME280;20544;50.018;20.010;2023-01-09T17:00:19;97583.41;;;7.82;100.00
23899;BME280;20544;50.018;20.010;2023-01-09T17:03:41;97591.95;;;7.84;100.00
23899;BME280;20544;50.018;20.010;2023-01-09T17:07:06;97596.23;;;7.85;100.00
23899;BME280;20544;50.018;20.010;2023-01-09T17:10:35;97603.15;;;7.86;100.00
23899;BME280;20544;50.018;20.010;2023-01-09T17:13:51;97606.39;;;7.88;100.00
23899;BME280;20544;50.018;20.010;2023-01-09T17:20:24;97604.39;;;7.90;100.00
23899;BME280;20544;50.018;20.010;2023-01-09T17:23:42;97608.47;;;7.93;100.00
23899;BME280;20544;50.018;20.010;2023-01-09T17:27:01;97610.30;;;7.92;100.00
23899;BME280;20544;50.018;20.010;2023-01-09T17:30:32;97624.10;;;7.94;100.00
23899;BME280;20544;50.018;20.010;2023-01-09T17:33:48;97628.38;;;7.96;100.00
23899;BME280;20544;50.018;20.010;2023-01-09T17:37:05;97632.86;;;7.95;100.00
23899;BME280;20544;50.018;20.010;2023-01-09T17:40:22;97632.59;;;7.90;100.00
23899;BME280;20544;50.018;20.010;2023-01-09T17:43:39;97641.34;;;7.90;100.00
23899;BME280;20544;50.018;20.010;2023-01-09T17:50:16;97643.79;;;7.92;100.00
23899;BME280;20544;50.018;20.010;2023-01-09T17:53:35;97648.70;;;7.95;100.00
23899;BME280;20544;50.018;20.010;2023-01-09T17:56:52;97654.98;;;7.94;100.00
23899;BME280;20544;50.018;20.010;2023-01-09T18:00:18;97651.71;;;7.92;100.00
23899;BME280;20544;50.018;20.010;2023-01-09T18:06:54;97653.55;;;7.91;100.00
23899;BME280;20544;50.018;20.010;2023-01-09T18:10:14;97644.80;;;7.91;100.00
23899;BME280;20544;50.018;20.010;2023-01-09T18:13:35;97650.67;;;7.86;100.00
23899;BME280;20544;50.018;20.010;2023-01-09T18:20:10;97662.23;;;7.85;100.00
23899;BME280;20544;50.018;20.010;2023-01-09T18:23:28;97661.80;;;7.82;100.00
23899;BME280;20544;50.018;20.010;2023-01-09T18:26:45;97663.80;;;7.80;100.00
23899;BME280;20544;50.018;20.010;2023-01-09T18:30:02;97671.52;;;7.81;100.00
23899;BME280;20544;50.018;20.010;2023-01-09T18:33:20;97670.52;;;7.82;100.00
23899;BME280;20544;50.018;20.010;2023-01-09T18:36:39;97682.35;;;7.86;100.00
23899;BME280;20544;50.018;20.010;2023-01-09T18:39:56;97679.71;;;7.86;100.00
23899;BME280;20544;50.018;20.010;2023-01-09T18:43:13;97684.79;;;7.88;100.00
23899;BME280;20544;50.018;20.010;2023-01-09T18:46:30;97682.95;;;7.88;100.00
23899;BME280;20544;50.018;20.010;2023-01-09T18:49:48;97685.80;;;7.87;100.00
23899;BME280;20544;50.018;20.010;2023-01-09T18:53:05;97693.08;;;7.85;100.00
23899;BME280;20544;50.018;20.010;2023-01-09T18:56:24;97701.19;;;7.83;100.00
23899;BME280;20544;50.018;20.010;2023-01-09T18:59:40;97698.75;;;7.82;100.00
23899;BME280;20544;50.018;20.010;2023-01-09T19:02:57;97696.11;;;7.82;100.00
23899;BME280;20544;50.018;20.010;2023-01-09T19:06:13;97698.75;;;7.82;100.00
23899;BME280;20544;50.018;20.010;2023-01-09T19:09:30;97699.95;;;7.79;100.00
23899;BME280;20544;50.018;20.010;2023-01-09T19:12:46;97693.23;;;7.76;100.00
23899;BME280;20544;50.018;20.010;2023-01-09T19:16:04;97690.59;;;7.76;100.00
23899;BME280;20544;50.018;20.010;2023-01-09T19:19:21;97697.07;;;7.74;100.00
23899;BME280;20544;50.018;20.010;2023-01-09T19:22:38;97695.43;;;7.73;100.00
23899;BME280;20544;50.018;20.010;2023-01-09T19:25:55;97703.70;;;7.70;100.00
23899;BME280;20544;50.018;20.010;2023-01-09T19:29:12;97697.55;;;7.63;100.00
23899;BME280;20544;50.018;20.010;2023-01-09T19:32:28;97694.35;;;7.67;100.00
23899;BME280;20544;50.018;20.010;2023-01-09T19:35:50;97704.55;;;7.70;100.00
23899;BME280;20544;50.018;20.010;2023-01-09T19:39:05;97701.07;;;7.70;100.00
23899;BME280;20544;50.018;20.010;2023-01-09T19:42:21;97706.19;;;7.71;100.00
23899;BME280;20544;50.018;20.010;2023-01-09T19:45:40;97704.71;;;7.69;100.00
23899;BME280;20544;50.018;20.010;2023-01-09T19:48:57;97709.74;;;7.64;100.00
23899;BME280;20544;50.018;20.010;2023-01-09T19:52:14;97706.11;;;7.65;100.00
23899;BME280;20544;50.018;20.010;2023-01-09T19:55:30;97708.11;;;7.63;100.00
23899;BME280;20544;50.018;20.010;2023-01-09T19:58:51;97714.41;;;7.61;100.00
23899;BME280;20544;50.018;20.010;2023-01-09T20:02:12;97709.74;;;7.64;100.00
23899;BME280;20544;50.018;20.010;2023-01-09T20:05:28;97711.19;;;7.66;100.00
23899;BME280;20544;50.018;20.010;2023-01-09T20:08:45;97724.22;;;7.68;100.00
23899;BME280;20544;50.018;20.010;2023-01-09T20:12:05;97732.30;;;7.66;100.00
23899;BME280;20544;50.018;20.010;2023-01-09T20:15:22;97728.41;;;7.62;100.00
23899;BME280;20544;50.018;20.010;2023-01-09T20:18:40;97737.77;;;7.65;100.00
23899;BME280;20544;50.018;20.010;2023-01-09T20:21:57;97736.13;;;7.64;100.00
23899;BME280;20544;50.018;20.010;2023-01-09T20:25:16;97726.58;;;7.63;100.00
23899;BME280;20544;50.018;20.010;2023-01-09T20:28:33;97730.86;;;7.64;100.00
23899;BME280;20544;50.018;20.010;2023-01-09T20:31:49;97719.70;;;7.61;100.00
23899;BME280;20544;50.018;20.010;2023-01-09T20:35:06;97724.77;;;7.63;100.00
23899;BME280;20544;50.018;20.010;2023-01-09T20:38:24;97721.70;;;7.59;100.00
23899;BME280;20544;50.018;20.010;2023-01-09T20:41:41;97719.25;;;7.58;100.00
23899;BME280;20544;50.018;20.010;2023-01-09T20:44:57;97725.08;;;7.53;100.00
23899;BME280;20544;50.018;20.010;2023-01-09T20:48:14;97730.11;;;7.48;100.00
23899;BME280;20544;50.018;20.010;2023-01-09T20:51:31;97728.02;;;7.43;100.00
23899;BME280;20544;50.018;20.010;2023-01-09T20:54:47;97731.50;;;7.44;100.00
23899;BME280;20544;50.018;20.010;2023-01-09T20:58:03;97724.83;;;7.48;100.00
23899;BME280;20544;50.018;20.010;2023-01-09T21:01:21;97726.83;;;7.46;100.00
23899;BME280;20544;50.018;20.010;2023-01-09T21:07:54;97736.43;;;7.32;100.00